Time;durP1;ratioP1;P1;durP2;ratioP2;P2;SDS_P1;SDS_P2;PMS_P1;PMS_P2;Temp;Humidity;BMP_temperature;BMP_pressure;BME280_temperature;BME280_humidity;BME280_pressure;Samples;Min_cycle;Max_cycle;Signal;HPM_P1;HPM_P2
2021/03/12 00:00:56;;;;;;;2.05;1.30;;;10.00;78.80;;;9.62;63.02;93818.53;5072533;28;20219;-80
2021/03/12 00:03:31;;;;;;;3.33;1.38;;;10.10;78.00;;;9.63;63.49;93820.16;5055129;28;20195;-81
2021/03/12 00:06:08;;;;;;;1.70;1.25;;;10.10;78.20;;;9.70;63.21;93820.88;5038564;28;20222;-82
2021/03/12 00:08:44;;;;;;;1.63;1.30;;;10.10;78.20;;;9.76;63.12;93835.75;5054822;28;20214;-80
2021/03/12 00:11:12;;;;;;;1.40;1.30;;;10.20;78.20;;;9.78;63.38;93846.00;5054387;28;20746;-80
2021/03/12 00:13:39;;;;;;;2.80;1.42;;;10.20;78.40;;;9.76;63.85;93863.75;5072337;28;20340;-81
2021/03/12 00:16:07;;;;;;;2.13;1.42;;;10.30;78.50;;;9.71;63.76;93869.63;5079510;28;20226;-80
2021/03/12 00:23:30;;;;;;;1.42;1.30;;;10.30;78.80;;;9.35;64.94;93838.84;5079595;28;20309;-80
2021/03/12 00:25:57;;;;;;;2.67;1.10;;;10.20;78.60;;;9.32;64.79;93849.75;5054567;28;20222;-80
2021/03/12 00:28:25;;;;;;;1.65;1.17;;;10.20;78.60;;;9.27;64.77;93853.78;5073575;28;20213;-80
2021/03/12 00:30:52;;;;;;;2.05;1.30;;;10.10;78.60;;;9.24;64.50;93853.38;5053630;28;20222;-79
2021/03/12 00:33:22;;;;;;;1.98;1.25;;;10.10;78.60;;;9.18;64.58;93864.69;5067325;28;20322;-80
2021/03/12 00:35:50;;;;;;;3.67;1.50;;;10.00;78.50;;;9.15;64.49;93871.16;5069361;28;20281;-80
2021/03/12 00:38:19;;;;;;;1.92;1.40;;;9.90;79.80;;;9.14;64.57;93872.16;5057240;28;20195;-79
2021/03/12 00:40:58;;;;;;;1.30;1.13;;;9.90;79.90;;;9.12;64.30;93880.22;5074543;28;20222;-79
2021/03/12 00:43:31;;;;;;;1.55;1.25;;;9.90;80.10;;;9.13;64.28;93878.41;5075287;28;20206;-80
2021/03/12 00:46:07;;;;;;;1.77;1.40;;;9.80;80.00;;;9.10;65.15;93876.19;5070849;28;20250;-80
2021/03/12 00:48:34;;;;;;;2.08;1.33;;;9.80;80.10;;;9.09;64.42;93872.81;5054472;28;20211;-81
2021/03/12 00:51:05;;;;;;;2.13;1.30;;;9.80;80.00;;;9.04;64.78;93877.03;5054256;28;20229;-81
2021/03/12 00:53:57;;;;;;;1.55;1.30;;;9.70;79.90;;;8.97;64.33;93869.19;5044773;28;20220;-80
2021/03/12 00:56:24;;;;;;;1.95;1.40;;;9.70;79.80;;;8.87;64.37;93864.41;5059988;28;20313;-81
2021/03/12 00:58:50;;;;;;;3.00;1.50;;;9.70;79.80;;;8.84;64.13;93870.06;5054292;28;20199;-81
2021/03/12 01:01:19;;;;;;;2.47;1.33;;;9.60;79.80;;;8.79;64.28;93872.50;5038750;28;20226;-81
2021/03/12 01:03:46;;;;;;;1.75;1.20;;;9.60;79.80;;;8.76;64.44;93880.75;5058370;28;20191;-80
2021/03/12 01:06:14;;;;;;;2.38;1.40;;;9.50;79.90;;;8.76;64.37;93878.13;5058406;28;20515;-80
2021/03/12 01:08:47;;;;;;;1.90;1.40;;;9.50;80.00;;;8.73;64.42;93881.19;5074927;28;20192;-80
2021/03/12 01:11:15;;;;;;;1.52;1.25;;;9.40;80.00;;;8.75;64.22;93886.97;5058845;28;20430;-79
2021/03/12 01:13:44;;;;;;;1.38;1.20;;;9.40;80.10;;;8.75;64.57;93894.81;5074551;28;20202;-80
2021/03/12 01:16:11;;;;;;;2.63;1.60;;;9.40;80.10;;;8.76;64.32;93891.22;5071687;28;20314;-79
2021/03/12 01:18:39;;;;;;;2.30;1.20;;;9.40;80.20;;;8.76;64.52;93894.66;5085919;28;20238;-80
2021/03/12 01:21:23;;;;;;;2.38;1.17;;;9.40;80.20;;;8.74;64.10;93891.44;5084943;28;20231;-81
2021/03/12 01:23:54;;;;;;;1.30;1.20;;;9.30;80.10;;;8.74;64.00;93890.59;5074344;28;20187;-80
2021/03/12 01:26:22;;;;;;;1.60;1.20;;;9.40;80.20;;;8.75;64.09;93887.81;5075567;28;20314;-79
2021/03/12 01:28:58;;;;;;;2.55;1.10;;;9.40;80.20;;;8.74;64.35;93894.03;5067949;28;20194;-80
2021/03/12 01:31:39;;;;;;;2.60;1.27;;;9.30;80.10;;;8.71;64.00;93878.75;5074365;28;20314;-80
2021/03/12 01:34:12;;;;;;;1.20;1.10;;;9.30;80.20;;;8.74;64.23;93888.00;5050317;28;20234;-81
2021/03/12 01:36:41;;;;;;;1.20;1.10;;;9.30;80.20;;;8.70;64.42;93903.28;5056456;28;20223;-81
2021/03/12 01:39:10;;;;;;;1.35;1.20;;;9.30;80.30;;;8.68;64.63;93902.69;5075837;28;20272;-81
2021/03/12 01:41:39;;;;;;;1.42;1.33;;;9.30;80.30;;;8.70;64.54;93908.50;5059695;28;20233;-81
2021/03/12 01:44:14;;;;;;;1.92;1.30;;;9.30;80.30;;;8.70;64.55;93902.50;5061169;28;20203;-81
2021/03/12 01:46:43;;;;;;;2.08;1.20;;;9.30;80.40;;;8.65;64.68;93897.88;5075294;28;20635;-80
2021/03/12 01:49:11;;;;;;;1.35;1.25;;;9.30;80.80;;;8.68;64.70;93910.53;5057511;28;20344;-81
2021/03/12 01:51:38;;;;;;;1.90;1.30;;;9.30;80.40;;;8.68;64.26;93897.47;5073556;28;20520;-80
2021/03/12 01:54:08;;;;;;;1.77;1.20;;;9.30;80.30;;;8.68;64.26;93897.47;5074027;28;20226;-80
2021/03/12 01:56:34;;;;;;;1.20;1.20;;;9.30;80.30;;;8.62;64.24;93895.69;5093406;28;20210;-80
2021/03/12 01:59:10;;;;;;;1.38;1.27;;;9.30;80.20;;;8.61;64.35;93907.94;5076754;28;20209;-81
2021/03/12 02:01:54;;;;;;;1.90;1.27;;;9.20;80.20;;;8.62;64.54;93916.59;5077034;28;20222;-80
2021/03/12 02:04:36;;;;;;;1.60;1.35;;;9.30;80.30;;;8.60;64.41;93903.69;5065421;28;20202;-81
2021/03/12 02:07:07;;;;;;;1.52;1.38;;;9.20;80.10;;;8.57;64.78;93929.44;5078243;28;20578;-80
2021/03/12 02:09:36;;;;;;;2.75;1.13;;;9.20;80.10;;;8.55;64.62;93941.94;5061324;28;20199;-81
2021/03/12 02:12:22;;;;;;;2.80;1.40;;;9.20;80.20;;;8.46;64.64;93934.28;5077082;28;20319;-81
2021/03/12 02:14:59;;;;;;;1.38;1.20;;;9.20;80.30;;;8.43;64.81;93934.66;5076937;28;20587;-81
2021/03/12 02:17:41;;;;;;;2.40;1.20;;;9.20;80.30;;;8.36;65.16;93933.06;5046507;28;20744;-80
2021/03/12 02:20:29;;;;;;;1.50;1.30;;;9.10;80.10;;;8.26;64.51;93931.66;5056999;28;20615;-81
2021/03/12 02:23:27;;;;;;;1.85;1.27;;;9.10;80.00;;;8.22;64.48;93924.44;5056984;28;20257;-81
2021/03/12 02:26:11;;;;;;;2.50;1.13;;;9.10;79.90;;;8.12;64.94;93923.03;5056757;28;20435;-79
2021/03/12 02:28:40;;;;;;;1.80;1.20;;;9.00;80.20;;;8.09;64.40;93913.00;5057260;28;20191;-81
2021/03/12 02:31:09;;;;;;;3.38;1.20;;;8.90;79.60;;;8.04;64.17;93891.88;5057429;28;20223;-80
2021/03/12 02:33:42;;;;;;;2.20;1.10;;;8.90;79.50;;;7.99;63.79;93868.97;5077295;28;20216;-81
2021/03/12 02:36:19;;;;;;;1.80;1.27;;;8.80;79.30;;;7.90;63.71;93859.75;5057846;28;20293;-81
2021/03/12 02:38:57;;;;;;;1.00;1.00;;;8.80;79.20;;;7.78;63.83;93871.81;5042051;28;20244;-81
2021/03/12 02:41:27;;;;;;;1.17;1.00;;;8.70;79.00;;;7.65;63.52;93889.06;5067762;28;20752;-81
2021/03/12 02:43:57;;;;;;;1.20;1.10;;;8.60;79.70;;;7.61;63.56;93882.63;5076583;28;20226;-81
2021/03/12 02:46:37;;;;;;;0.90;0.90;;;8.60;78.90;;;7.53;64.39;93914.09;5074454;28;20619;-81
2021/03/12 02:49:09;;;;;;;3.55;1.17;;;8.50;79.10;;;7.51;64.35;93927.34;5057121;28;20199;-81
2021/03/12 02:51:37;;;;;;;1.60;1.10;;;8.40;79.40;;;7.56;64.67;93944.25;5061225;28;20215;-81
2021/03/12 02:54:06;;;;;;;1.55;1.10;;;8.40;79.60;;;7.60;64.53;93958.50;5040029;28;20216;-80
2021/03/12 02:56:41;;;;;;;2.70;1.45;;;8.30;79.70;;;7.64;64.55;93960.53;5058079;28;20231;-80
2021/03/12 02:59:11;;;;;;;1.00;1.00;;;8.30;79.90;;;7.74;64.15;93957.53;5050861;28;20199;-80
2021/03/12 03:01:58;;;;;;;1.27;1.00;;;8.40;80.00;;;7.79;64.29;93949.13;5058161;28;20226;-80
2021/03/12 03:04:44;;;;;;;1.55;0.90;;;8.40;79.90;;;7.85;63.94;93949.13;5044572;28;20265;-81
2021/03/12 03:07:19;;;;;;;1.55;1.00;;;8.40;79.90;;;7.89;64.23;93940.91;5072797;28;20211;-81
2021/03/12 03:20:10;;;;;;;1.02;1.00;;;8.50;79.60;;;7.69;64.14;93929.41;5073877;28;20863;-81
2021/03/12 03:22:43;;;;;;;2.05;1.20;;;8.50;79.30;;;7.64;64.11;93925.78;5056247;28;20584;-80
2021/03/12 03:25:13;;;;;;;1.45;1.10;;;8.50;79.30;;;7.59;63.77;93943.84;5038927;28;20224;-81
2021/03/12 03:27:41;;;;;;;0.80;0.80;;;8.40;79.20;;;7.52;63.84;93939.41;5055734;28;20257;-80
2021/03/12 03:30:13;;;;;;;1.20;1.10;;;8.40;79.10;;;7.45;63.55;93932.56;5055738;28;20729;-81
2021/03/12 03:32:44;;;;;;;1.15;1.00;;;8.30;78.80;;;7.36;63.47;93966.66;5039981;28;20409;-81
2021/03/12 03:35:16;;;;;;;1.13;0.90;;;8.30;78.70;;;7.29;63.69;93988.50;5055648;28;20242;-80
2021/03/12 03:37:43;;;;;;;1.05;1.00;;;8.20;78.80;;;7.22;64.00;93983.25;5038831;28;20310;-81
2021/03/12 03:40:11;;;;;;;1.08;0.90;;;8.30;78.90;;;7.17;63.48;93983.03;5071829;28;20192;-82
2021/03/12 03:42:45;;;;;;;1.00;1.00;;;8.10;78.70;;;7.07;63.69;93975.56;5055786;28;20709;-81
2021/03/12 03:45:14;;;;;;;2.25;1.00;;;8.00;78.70;;;7.09;64.01;93978.75;5055395;28;20199;-81
2021/03/12 03:47:48;;;;;;;1.00;1.00;;;8.00;78.80;;;7.06;63.82;93966.13;5055964;28;20210;-80
2021/03/12 03:50:17;;;;;;;0.98;0.98;;;7.90;78.80;;;7.08;64.03;93961.53;5038856;28;20207;-81
2021/03/12 03:52:44;;;;;;;1.30;1.10;;;7.90;79.00;;;7.09;64.12;93957.09;5042909;28;20207;-79
2021/03/12 03:55:18;;;;;;;1.13;1.08;;;7.90;79.00;;;7.14;63.81;93957.31;5068558;28;20586;-81
2021/03/12 03:57:46;;;;;;;1.00;1.00;;;7.90;79.10;;;7.14;63.68;93949.50;5050534;28;20232;-81
2021/03/12 04:00:15;;;;;;;1.45;1.00;;;7.90;79.00;;;7.12;63.53;93965.34;5073868;28;20204;-82
2021/03/12 04:02:52;;;;;;;1.05;1.00;;;7.90;78.70;;;7.03;63.12;93985.56;5074462;28;20229;-81
2021/03/12 04:05:24;;;;;;;1.40;1.30;;;7.90;78.70;;;6.98;63.46;93990.56;5073392;28;20506;-80
2021/03/12 04:07:56;;;;;;;2.97;1.20;;;7.80;78.60;;;6.93;63.34;94005.94;5073794;28;20199;-80
2021/03/12 04:10:24;;;;;;;1.80;1.20;;;7.80;78.50;;;6.90;63.24;93985.50;5056446;28;20289;-81
2021/03/12 04:12:52;;;;;;;2.33;1.10;;;7.80;78.60;;;6.87;63.40;94009.31;5057133;28;20198;-80
2021/03/12 04:15:21;;;;;;;1.23;1.13;;;7.70;78.60;;;6.84;63.39;94009.72;5091458;28;20226;-81
2021/03/12 04:17:51;;;;;;;1.17;1.17;;;7.70;78.50;;;6.80;62.76;94011.09;5074955;28;20653;-81
2021/03/12 04:20:20;;;;;;;2.85;1.20;;;7.60;78.30;;;6.69;63.31;93987.16;5046222;28;20227;-81
2021/03/12 04:22:49;;;;;;;2.42;1.15;;;7.60;78.40;;;6.72;63.01;93984.16;5051353;28;20291;-80
2021/03/12 04:25:20;;;;;;;1.85;1.20;;;7.60;78.40;;;6.67;63.25;93989.16;5060162;28;20207;-80
2021/03/12 04:27:48;;;;;;;2.88;1.27;;;7.50;78.30;;;6.68;63.32;93998.59;5067589;28;20221;-80
2021/03/12 04:30:16;;;;;;;1.48;1.10;;;7.50;78.40;;;6.67;63.41;93994.38;5058315;28;20187;-81
2021/03/12 04:32:44;;;;;;;3.35;1.20;;;7.50;78.50;;;6.70;62.90;94016.63;5035257;28;20196;-81
2021/03/12 04:35:13;;;;;;;1.08;1.00;;;7.40;78.40;;;6.70;63.25;94032.25;5053738;28;20750;-80
2021/03/12 04:37:41;;;;;;;3.05;1.30;;;7.50;78.50;;;6.67;63.28;94030.84;5038427;28;20227;-81
2021/03/12 04:40:12;;;;;;;1.50;1.10;;;7.50;78.60;;;6.64;63.49;94022.59;5038867;28;20612;-81
2021/03/12 04:42:44;;;;;;;1.60;1.20;;;7.40;78.70;;;6.69;63.50;94036.69;5054688;28;20260;-81
2021/03/12 04:45:13;;;;;;;3.67;1.30;;;7.40;78.70;;;6.71;63.47;94007.81;5054600;28;20211;-81
2021/03/12 04:47:44;;;;;;;1.13;1.00;;;7.40;78.80;;;6.68;63.52;94014.22;5053125;28;20226;-82
2021/03/12 04:50:12;;;;;;;1.02;1.02;;;7.50;78.90;;;6.79;63.34;94004.28;5067395;28;20205;-80
2021/03/12 04:52:42;;;;;;;1.23;1.13;;;7.40;78.80;;;6.79;62.82;94005.06;5067410;28;20742;-81
2021/03/12 04:55:15;;;;;;;2.40;1.30;;;7.40;78.70;;;6.77;62.77;94001.06;5035764;28;20221;-81
2021/03/12 04:57:44;;;;;;;4.25;2.40;;;7.50;78.70;;;6.75;62.97;94005.63;5063284;28;20717;-81
2021/03/12 05:00:13;;;;;;;17.30;9.70;;;7.50;78.60;;;6.76;62.93;93996.84;5054480;28;20187;-81
2021/03/12 05:02:54;;;;;;;4.97;3.75;;;7.50;78.50;;;6.70;62.87;94012.25;5058809;28;20206;-81
2021/03/12 05:05:23;;;;;;;3.45;1.90;;;7.50;78.40;;;6.70;62.81;94021.84;5072587;28;20206;-81
2021/03/12 05:07:52;;;;;;;1.75;1.58;;;7.50;78.40;;;6.69;63.35;94028.06;5055687;28;20720;-80
2021/03/12 05:10:26;;;;;;;2.38;1.30;;;7.50;78.60;;;6.70;63.35;94034.88;5073171;28;20210;-81
2021/03/12 05:12:55;;;;;;;1.15;1.00;;;7.40;78.70;;;6.77;63.29;94037.53;5090742;28;20251;-81
2021/03/12 05:15:31;;;;;;;3.33;1.10;;;7.40;78.80;;;6.80;63.15;94047.56;5060068;28;20264;-80
2021/03/12 05:17:57;;;;;;;1.33;1.23;;;7.50;78.80;;;6.86;63.37;94065.06;5057626;28;20203;-81
2021/03/12 05:20:25;;;;;;;2.03;1.25;;;7.50;78.90;;;6.85;64.13;94102.56;5074077;28;20202;-80
2021/03/12 05:22:53;;;;;;;4.47;1.52;;;7.50;79.00;;;6.76;64.25;94122.72;5057657;28;20289;-81
2021/03/12 05:25:20;;;;;;;2.03;1.35;;;7.50;79.20;;;6.64;64.46;94138.06;5074079;28;20668;-79
2021/03/12 05:27:47;;;;;;;1.30;1.20;;;7.50;79.50;;;6.54;64.71;94138.38;5090576;28;20270;-80
2021/03/12 05:30:14;;;;;;;4.00;1.60;;;7.50;79.50;;;6.40;65.95;94142.63;5074328;28;20680;-80
2021/03/12 05:32:41;;;;;;;2.47;1.30;;;7.40;79.70;;;6.33;64.93;94140.97;5074032;28;20714;-80
2021/03/12 05:35:11;;;;;;;1.25;1.10;;;7.30;79.60;;;6.17;66.60;94140.19;5074520;28;20222;-81
2021/03/12 05:37:38;;;;;;;1.45;1.10;;;7.30;80.10;;;6.12;66.82;94152.97;5073937;28;20739;-80
2021/03/12 05:40:07;;;;;;;2.65;1.50;;;7.20;80.30;;;6.08;66.77;94142.09;5074043;28;20234;-81
2021/03/12 05:42:44;;;;;;;2.42;1.30;;;7.10;80.50;;;6.06;67.13;94169.31;5074575;28;20872;-80
2021/03/12 05:45:13;;;;;;;1.30;1.20;;;7.00;80.60;;;6.07;67.08;94165.72;5058203;28;20214;-80
2021/03/12 05:47:50;;;;;;;3.25;1.50;;;7.00;80.70;;;6.02;67.78;94153.25;5061705;28;20202;-80
2021/03/12 05:50:18;;;;;;;1.60;1.40;;;7.00;81.00;;;6.01;67.44;94169.84;5077294;28;20665;-81
2021/03/12 05:52:46;;;;;;;3.05;1.50;;;7.00;81.10;;;6.01;67.25;94182.06;5094021;28;20206;-80
2021/03/12 05:55:16;;;;;;;2.33;1.35;;;6.90;81.10;;;5.97;67.48;94175.56;5060358;28;20230;-80
2021/03/12 05:57:46;;;;;;;1.25;1.15;;;6.90;81.20;;;5.92;67.69;94192.53;5051828;28;20687;-80
2021/03/12 06:00:15;;;;;;;1.50;1.33;;;6.90;81.40;;;5.93;67.31;94190.72;5077133;28;20255;-81
2021/03/12 06:02:50;;;;;;;2.25;1.25;;;6.90;81.20;;;5.87;67.21;94199.25;5078839;28;20190;-81
2021/03/12 06:05:33;;;;;;;1.38;1.27;;;6.80;81.00;;;5.82;67.29;94189.38;5094277;28;20623;-79
2021/03/12 06:08:00;;;;;;;1.65;1.15;;;6.80;80.90;;;5.74;66.70;94210.31;5077190;28;20214;-81
2021/03/12 06:10:27;;;;;;;2.65;1.00;;;6.80;80.80;;;5.73;67.10;94221.72;5077091;28;20195;-80
2021/03/12 06:13:01;;;;;;;1.85;1.00;;;6.70;80.90;;;5.69;67.04;94249.06;5078000;28;20668;-81
2021/03/12 06:15:47;;;;;;;1.67;0.90;;;6.70;80.90;;;5.66;67.09;94245.00;5061026;28;20246;-80
2021/03/12 06:18:25;;;;;;;1.05;0.90;;;6.60;80.80;;;5.61;67.22;94258.59;5063504;28;20195;-80
2021/03/12 06:21:03;;;;;;;0.82;0.80;;;6.60;81.00;;;5.62;67.30;94259.38;5078133;28;20247;-81
2021/03/12 06:23:39;;;;;;;1.00;1.00;;;6.60;81.20;;;5.69;67.35;94254.25;5077537;28;20206;-81
2021/03/12 06:26:43;;;;;;;1.20;1.00;;;6.60;81.50;;;5.77;66.99;94259.38;5079399;28;20219;-80
2021/03/12 06:29:17;;;;;;;2.05;1.02;;;6.60;81.50;;;5.86;67.03;94254.91;5061039;28;20289;-81
2021/03/12 06:32:08;;;;;;;1.00;1.00;;;6.60;81.30;;;5.87;66.66;94274.75;5079554;28;20692;-81
2021/03/12 06:35:01;;;;;;;1.00;1.00;;;6.70;81.00;;;5.83;66.66;94276.09;5093476;28;20623;-81
2021/03/12 06:37:48;;;;;;;1.45;1.10;;;6.70;80.80;;;5.82;66.01;94275.25;5093846;28;20202;-81
2021/03/12 06:40:40;;;;;;;2.20;2.00;;;6.80;80.80;;;5.82;66.10;94283.06;5079594;28;20195;-81
2021/03/12 06:43:26;;;;;;;1.10;1.00;;;6.70;80.60;;;5.85;66.16;94289.75;5063929;28;20218;-82
2021/03/12 06:46:01;;;;;;;1.10;1.00;;;6.70;80.70;;;5.87;66.44;94285.16;5077011;28;20439;-81
2021/03/12 06:49:01;;;;;;;1.20;1.10;;;6.80;80.80;;;5.97;66.69;94308.31;5078261;28;20210;-81
2021/03/12 06:52:01;;;;;;;2.92;1.13;;;6.80;81.00;;;6.09;66.12;94317.31;5077454;28;20230;-81
2021/03/12 06:54:32;;;;;;;1.20;1.10;;;6.80;80.80;;;6.19;65.90;94320.50;5076605;28;20222;-82
2021/03/12 06:57:21;;;;;;;1.65;1.10;;;6.90;81.00;;;6.30;66.15;94328.84;5076753;28;20253;-81
2021/03/12 07:00:07;;;;;;;1.00;1.00;;;7.00;80.80;;;6.39;65.69;94340.78;5076438;28;20206;-81
2021/03/12 07:02:39;;;;;;;1.55;1.10;;;7.10;80.80;;;6.40;65.50;94324.97;5076403;28;20219;-81
2021/03/12 07:05:14;;;;;;;1.10;1.10;;;7.10;80.70;;;6.52;64.40;94340.16;5061728;28;20291;-81
2021/03/12 07:08:33;;;;;;;1.52;1.20;;;7.20;80.40;;;6.62;64.46;94340.69;5091319;28;20202;-81
2021/03/12 07:11:27;;;;;;;2.05;1.00;;;7.30;80.20;;;6.67;64.56;94340.94;5065199;28;20222;-82
2021/03/12 07:14:09;;;;;;;2.38;1.30;;;7.30;80.00;;;6.73;63.87;94348.03;5063254;28;20205;-81
2021/03/12 07:17:00;;;;;;;2.25;1.10;;;7.40;79.80;;;6.75;62.81;94350.47;5079031;28;20221;-82
2021/03/12 07:19:29;;;;;;;1.38;1.27;;;7.50;79.40;;;6.72;62.07;94361.25;5075259;28;20206;-82
2021/03/12 07:22:00;;;;;;;2.08;1.10;;;7.50;78.60;;;6.77;61.86;94360.72;5059276;28;20676;-81
2021/03/12 07:24:33;;;;;;;2.33;1.40;;;7.50;78.50;;;6.79;61.95;94366.56;5076555;28;20252;-82
2021/03/12 07:27:03;;;;;;;3.00;1.77;;;7.50;79.30;;;6.82;61.45;94369.63;5075971;28;20215;-81
2021/03/12 07:29:45;;;;;;;1.88;1.38;;;7.50;78.20;;;6.85;60.82;94371.03;5077509;28;20279;-82
2021/03/12 07:32:24;;;;;;;2.67;1.40;;;7.50;77.60;;;6.87;61.16;94376.88;5076817;28;20584;-81
2021/03/12 07:34:53;;;;;;;2.40;1.17;;;7.50;78.10;;;6.89;61.72;94373.09;5075872;28;20245;-81
2021/03/12 07:37:44;;;;;;;1.92;1.10;;;7.50;78.30;;;7.00;60.90;94386.66;5065305;28;20223;-82
2021/03/12 07:40:12;;;;;;;1.20;1.10;;;7.60;77.70;;;7.02;60.83;94392.50;5059171;28;20687;-82
2021/03/12 07:42:42;;;;;;;2.53;1.20;;;7.60;77.80;;;7.05;60.73;94379.09;5074939;28;20287;-82
2021/03/12 07:45:18;;;;;;;2.40;1.30;;;7.60;77.50;;;7.11;61.00;94382.78;5076789;28;20197;-82
2021/03/12 07:48:04;;;;;;;3.10;1.30;;;7.70;77.70;;;7.17;60.40;94397.69;5064051;28;20284;-82
2021/03/12 07:50:41;;;;;;;1.10;1.10;;;7.70;77.50;;;7.27;61.20;94400.00;5041634;28;20234;-82
2021/03/12 07:53:16;;;;;;;3.08;1.40;;;7.80;78.00;;;7.36;60.29;94398.88;5056443;28;20665;-81
2021/03/12 07:55:54;;;;;;;3.63;1.80;;;7.80;78.30;;;7.49;60.56;94395.63;5056602;28;20235;-80
2021/03/12 07:58:57;;;;;;;2.65;1.60;;;7.90;77.80;;;7.68;59.48;94402.03;5058142;28;20587;-80
2021/03/12 08:01:55;;;;;;;3.50;1.48;;;8.00;77.60;;;7.85;59.31;94413.03;5058178;28;20241;-82
2021/03/12 08:04:42;;;;;;;1.42;1.15;;;8.10;77.10;;;7.95;59.11;94397.84;5071585;28;20286;-82
2021/03/12 08:07:16;;;;;;;4.60;1.98;;;8.20;77.30;;;8.08;58.54;94396.34;5061237;28;20722;-82
2021/03/12 08:09:54;;;;;;;2.63;1.30;;;8.30;77.10;;;8.08;57.10;94425.91;5086412;28;20206;-83
2021/03/12 08:12:38;;;;;;;5.18;1.23;;;8.40;76.10;;;8.17;55.79;94405.66;5057178;28;20230;-81
2021/03/12 08:15:30;;;;;;;3.90;1.35;;;8.50;75.30;;;8.22;57.76;94426.81;5056798;28;20230;-81
2021/03/12 08:18:07;;;;;;;1.10;1.00;;;8.60;76.10;;;8.29;57.64;94411.19;5064669;28;20572;-81
2021/03/12 08:20:41;;;;;;;2.95;1.20;;;8.60;75.80;;;8.34;57.11;94404.38;5071436;28;20219;-81
2021/03/12 08:23:34;;;;;;;2.70;1.00;;;8.70;75.70;;;8.38;57.16;94396.97;5056557;28;20214;-81
2021/03/12 08:26:12;;;;;;;1.77;1.20;;;8.80;75.70;;;8.42;55.89;94402.63;5056133;28;20235;-82
2021/03/12 08:29:30;;;;;;;3.05;1.30;;;8.90;75.00;;;8.42;55.69;94410.47;5057326;28;20412;-82
2021/03/12 08:31:59;;;;;;;2.60;1.40;;;8.90;75.00;;;8.39;54.98;94421.31;5071126;28;20222;-82
2021/03/12 08:34:42;;;;;;;1.83;1.30;;;8.90;74.40;;;8.32;55.32;94419.47;5056435;28;20222;-82
2021/03/12 08:37:30;;;;;;;2.28;1.10;;;8.90;74.80;;;8.31;56.09;94435.31;5071734;28;20222;-81
2021/03/12 08:40:15;;;;;;;1.23;1.13;;;8.90;75.10;;;8.30;56.03;94415.41;5084966;28;20198;-82
2021/03/12 08:43:13;;;;;;;1.25;1.15;;;8.90;74.90;;;8.35;55.47;94444.41;5072066;28;20227;-82
2021/03/12 08:46:17;;;;;;;2.45;1.52;;;8.90;75.00;;;8.48;55.45;94407.13;5085231;28;20589;-82
2021/03/12 08:48:48;;;;;;;1.50;1.40;;;8.90;74.60;;;8.61;56.48;94407.19;5074694;28;20207;-82
2021/03/12 08:51:25;;;;;;;2.45;1.20;;;9.00;75.10;;;8.75;54.30;94407.28;5058161;28;21891;-82
2021/03/12 08:54:01;;;;;;;1.20;1.10;;;9.10;74.40;;;8.89;54.36;94429.88;5075278;28;20580;-82
2021/03/12 08:56:45;;;;;;;3.40;1.40;;;9.10;74.10;;;8.97;52.34;94414.03;5071380;28;20226;-82
2021/03/12 08:59:13;;;;;;;1.90;1.30;;;9.20;73.10;;;9.13;51.93;94410.28;5071453;28;20222;-82
2021/03/12 09:02:02;;;;;;;3.50;1.30;;;9.30;73.60;;;9.27;53.50;94392.03;5057721;28;20299;-82
2021/03/12 09:04:41;;;;;;;1.40;1.20;;;9.40;73.80;;;9.33;51.24;94393.84;5070536;28;20278;-83
2021/03/12 09:07:53;;;;;;;3.22;1.52;;;9.50;72.60;;;9.38;52.19;94395.88;5068471;28;20250;-82
2021/03/12 09:10:27;;;;;;;2.33;1.48;;;9.60;73.20;;;9.43;51.69;94396.88;5055080;28;20203;-82
2021/03/12 09:13:20;;;;;;;3.20;1.63;;;9.70;72.60;;;9.39;51.42;94395.69;5056312;28;20328;-83
2021/03/12 09:15:51;;;;;;;2.08;1.30;;;9.80;72.00;;;9.31;50.97;94403.69;5054548;28;20239;-83
2021/03/12 09:18:39;;;;;;;2.05;1.50;;;9.80;71.80;;;9.29;50.89;94396.06;5057141;28;20205;-82
2021/03/12 09:21:17;;;;;;;2.88;1.70;;;9.80;71.50;;;9.31;51.38;94414.16;5039389;28;20302;-83
2021/03/12 09:23:54;;;;;;;2.10;1.70;;;9.80;71.70;;;9.39;51.36;94405.34;5049602;28;20210;-82
2021/03/12 09:26:31;;;;;;;2.83;1.80;;;9.80;71.80;;;9.43;50.95;94409.97;5078198;28;20228;-82
2021/03/12 09:29:08;;;;;;;3.63;1.48;;;9.80;71.30;;;9.43;49.83;94406.56;5059341;28;20649;-83
2021/03/12 09:31:39;;;;;;;5.88;1.60;;;9.80;71.20;;;9.48;50.01;94405.97;5058306;28;20223;-83
2021/03/12 09:34:19;;;;;;;3.85;1.58;;;9.90;71.00;;;9.41;49.53;94406.75;5059978;28;20260;-83
2021/03/12 09:37:00;;;;;;;2.25;1.30;;;9.90;70.70;;;9.45;50.17;94430.75;5073799;28;20218;-82
2021/03/12 09:39:57;;;;;;;2.55;1.50;;;9.90;70.80;;;9.45;50.75;94431.53;5065941;28;20667;-82
2021/03/12 09:42:49;;;;;;;2.42;1.50;;;9.90;71.10;;;9.42;49.94;94416.25;5061447;28;20207;-82
2021/03/12 09:45:29;;;;;;;3.45;1.70;;;9.90;70.50;;;9.41;49.79;94424.25;5044235;28;20199;-82
2021/03/12 09:48:08;;;;;;;3.90;1.70;;;9.90;70.50;;;9.38;50.61;94409.75;5044531;28;20239;-82
2021/03/12 09:50:36;;;;;;;1.77;1.40;;;9.90;70.80;;;9.37;51.46;94415.19;5057955;28;20213;-81
2021/03/12 09:53:09;;;;;;;3.00;1.50;;;10.00;69.80;;;9.34;51.05;94412.97;5045401;28;20223;-81
2021/03/12 09:56:02;;;;;;;1.65;1.40;;;9.90;70.80;;;9.27;51.27;94421.59;5079307;28;20230;-83
2021/03/12 09:58:35;;;;;;;3.05;1.60;;;10.00;69.70;;;9.25;51.83;94436.72;5078603;28;20293;-81
2021/03/12 10:01:37;;;;;;;1.73;1.50;;;10.00;70.10;;;9.19;50.36;94428.81;5070706;28;20223;-82
2021/03/12 10:04:37;;;;;;;2.58;1.50;;;9.90;70.50;;;9.14;49.72;94437.25;5079919;28;20209;-81
2021/03/12 10:07:24;;;;;;;4.45;1.60;;;9.80;70.00;;;9.13;50.53;94425.19;5080546;28;20241;-82
2021/03/12 10:09:51;;;;;;;1.83;1.52;;;9.70;70.50;;;9.28;50.83;94423.22;5061134;28;20244;-82
2021/03/12 10:12:43;;;;;;;2.45;1.50;;;9.70;71.00;;;9.41;50.57;94429.50;5067153;28;20218;-83
2021/03/12 10:15:48;;;;;;;1.83;1.40;;;9.80;70.90;;;9.68;51.55;94429.56;5081529;28;20711;-82
2021/03/12 10:18:35;;;;;;;2.83;1.65;;;9.90;71.90;;;9.91;51.64;94423.97;5064132;28;20197;-82
2021/03/12 10:21:16;;;;;;;1.90;1.65;;;10.00;70.60;;;10.09;51.42;94424.22;5072845;28;20238;-83
2021/03/12 10:23:43;;;;;;;1.70;1.38;;;10.20;70.60;;;10.21;48.81;94455.06;5063542;28;20315;-81
2021/03/12 10:26:13;;;;;;;1.65;1.30;;;10.30;69.40;;;10.28;49.31;94423.59;5058996;28;20619;-81
2021/03/12 10:28:47;;;;;;;1.88;1.17;;;10.40;69.20;;;10.28;45.43;94452.44;5074548;28;20203;-83
2021/03/12 10:31:13;;;;;;;1.30;1.20;;;10.60;67.00;;;10.20;46.04;94409.69;5057085;28;20673;-82
2021/03/12 10:33:49;;;;;;;1.00;1.00;;;10.50;66.90;;;10.17;47.51;94409.31;5057547;28;20198;-82
2021/03/12 10:36:18;;;;;;;1.33;1.23;;;10.60;67.50;;;10.16;47.51;94407.69;5075838;28;20261;-82
2021/03/12 10:38:47;;;;;;;2.25;1.10;;;10.50;67.40;;;10.13;47.11;94406.28;5058947;28;20280;-82
2021/03/12 10:41:25;;;;;;;1.20;1.10;;;10.50;66.90;;;10.12;45.60;94393.38;5062079;28;20258;-81
2021/03/12 10:44:02;;;;;;;2.70;1.15;;;10.50;66.00;;;10.03;46.38;94388.34;5056215;28;20305;-82
2021/03/12 10:46:31;;;;;;;1.65;1.25;;;10.50;66.00;;;10.00;45.97;94367.78;5059917;28;20363;-82
2021/03/12 10:48:59;;;;;;;1.58;1.20;;;10.50;66.40;;;9.98;46.52;94387.31;5055974;28;20205;-82
2021/03/12 10:51:38;;;;;;;1.55;1.10;;;10.50;66.20;;;9.94;47.10;94395.56;5056198;28;20323;-82
2021/03/12 10:54:05;;;;;;;2.30;1.20;;;10.50;66.50;;;9.89;46.96;94379.66;5056604;28;20203;-82
2021/03/12 10:56:31;;;;;;;1.45;1.35;;;10.40;66.40;;;9.97;47.99;94383.88;5075357;28;20226;-82
2021/03/12 10:59:06;;;;;;;1.30;1.20;;;10.50;66.90;;;10.04;47.19;94392.56;5076622;28;20659;-82
2021/03/12 11:01:40;;;;;;;1.02;1.00;;;10.50;66.50;;;10.05;45.58;94385.50;5076422;28;20308;-82
2021/03/12 11:04:12;;;;;;;1.58;1.42;;;10.50;65.60;;;10.07;45.67;94383.47;5076809;28;20194;-82
2021/03/12 11:06:41;;;;;;;1.27;1.17;;;10.50;65.70;;;10.14;45.64;94384.28;5075664;28;20234;-82
2021/03/12 11:09:12;;;;;;;1.33;1.27;;;10.50;65.90;;;10.30;46.18;94382.28;5060836;28;20233;-81
2021/03/12 11:11:43;;;;;;;2.67;1.30;;;10.50;67.30;;;10.44;45.65;94365.56;5059830;28;20279;-81
2021/03/12 11:14:10;;;;;;;1.38;1.27;;;10.60;66.10;;;10.59;44.23;94375.00;5092025;28;20202;-82
2021/03/12 11:16:37;;;;;;;1.27;1.20;;;10.70;65.40;;;10.68;44.50;94381.63;5075942;28;20715;-81
2021/03/12 11:19:05;;;;;;;5.53;1.27;;;10.80;65.50;;;10.69;43.44;94359.66;5059155;28;20653;-80
2021/03/12 11:21:33;;;;;;;2.60;1.42;;;10.90;64.80;;;10.71;42.61;94368.91;5059684;28;20276;-81